sensor_id;sensor_type;location;lat;lon;timestamp;P1;durP1;ratioP1;P2;durP2;ratioP2
25481;SDS011;13395;50.752;4.268;2023-07-29T00:01:41;3.13;;;1.00;;
25481;SDS011;13395;50.752;4.268;2023-07-29T00:04:07;2.60;;;1.30;;
25481;SDS011;13395;50.752;4.268;2023-07-29T00:06:36;5.82;;;1.30;;
25481;SDS011;13395;50.752;4.268;2023-07-29T00:09:02;9.20;;;1.27;;
25481;SDS011;13395;50.752;4.268;2023-07-29T00:11:28;5.25;;;1.20;;
25481;SDS011;13395;50.752;4.268;2023-07-29T00:13:53;3.20;;;1.50;;
25481;SDS011;13395;50.752;4.268;2023-07-29T00:16:19;3.85;;;1.30;;
25481;SDS011;13395;50.752;4.268;2023-07-29T00:18:47;3.83;;;1.25;;
25481;SDS011;13395;50.752;4.268;2023-07-29T00:21:16;5.32;;;1.40;;
25481;SDS011;13395;50.752;4.268;2023-07-29T00:23:41;4.88;;;0.95;;
25481;SDS011;13395;50.752;4.268;2023-07-29T00:26:07;6.43;;;1.38;;
25481;SDS011;13395;50.752;4.268;2023-07-29T00:28:33;3.47;;;1.13;;
25481;SDS011;13395;50.752;4.268;2023-07-29T00:30:58;4.25;;;1.33;;
25481;SDS011;13395;50.752;4.268;2023-07-29T00:33:24;3.45;;;1.40;;
25481;SDS011;13395;50.752;4.268;2023-07-29T00:35:49;5.50;;;1.40;;
25481;SDS011;13395;50.752;4.268;2023-07-29T00:38:15;5.40;;;1.38;;
25481;SDS011;13395;50.752;4.268;2023-07-29T00:40:41;4.47;;;1.38;;
25481;SDS011;13395;50.752;4.268;2023-07-29T00:43:07;3.53;;;1.05;;
25481;SDS011;13395;50.752;4.268;2023-07-29T00:45:33;3.30;;;1.30;;
25481;SDS011;13395;50.752;4.268;2023-07-29T00:48:02;3.90;;;1.60;;
25481;SDS011;13395;50.752;4.268;2023-07-29T00:50:28;8.10;;;1.58;;
25481;SDS011;13395;50.752;4.268;2023-07-29T00:52:56;3.05;;;1.17;;
25481;SDS011;13395;50.752;4.268;2023-07-29T00:55:22;7.53;;;1.95;;
25481;SDS011;13395;50.752;4.268;2023-07-29T00:57:48;2.55;;;1.20;;
25481;SDS011;13395;50.752;4.268;2023-07-29T01:00:16;3.35;;;1.50;;
25481;SDS011;13395;50.752;4.268;2023-07-29T01:02:42;5.88;;;1.48;;
25481;SDS011;13395;50.752;4.268;2023-07-29T01:05:08;2.72;;;1.25;;
25481;SDS011;13395;50.752;4.268;2023-07-29T01:10:22;5.80;;;1.35;;
25481;SDS011;13395;50.752;4.268;2023-07-29T01:13:06;2.97;;;1.45;;
25481;SDS011;13395;50.752;4.268;2023-07-29T01:18:18;6.60;;;1.35;;
25481;SDS011;13395;50.752;4.268;2023-07-29T01:23:25;2.72;;;1.42;;
25481;SDS011;13395;50.752;4.268;2023-07-29T01:25:53;4.15;;;1.55;;
25481;SDS011;13395;50.752;4.268;2023-07-29T01:28:19;4.30;;;1.30;;
25481;SDS011;13395;50.752;4.268;2023-07-29T01:30:45;3.10;;;1.52;;
25481;SDS011;13395;50.752;4.268;2023-07-29T01:33:16;7.95;;;1.95;;
25481;SDS011;13395;50.752;4.268;2023-07-29T01:36:01;6.18;;;1.35;;
25481;SDS011;13395;50.752;4.268;2023-07-29T01:38:35;4.18;;;1.52;;
25481;SDS011;13395;50.752;4.268;2023-07-29T01:41:03;2.95;;;1.40;;
25481;SDS011;13395;50.752;4.268;2023-07-29T01:43:30;6.63;;;1.85;;
25481;SDS011;13395;50.752;4.268;2023-07-29T01:45:57;4.15;;;1.20;;
25481;SDS011;13395;50.752;4.268;2023-07-29T01:48:23;2.55;;;1.40;;
25481;SDS011;13395;50.752;4.268;2023-07-29T01:50:49;2.75;;;1.83;;
25481;SDS011;13395;50.752;4.268;2023-07-29T01:53:15;2.60;;;1.42;;
25481;SDS011;13395;50.752;4.268;2023-07-29T01:55:41;6.35;;;1.55;;
25481;SDS011;13395;50.752;4.268;2023-07-29T01:58:07;4.45;;;1.60;;
25481;SDS011;13395;50.752;4.268;2023-07-29T02:00:32;4.03;;;1.77;;
25481;SDS011;13395;50.752;4.268;2023-07-29T02:02:58;8.13;;;1.67;;
25481;SDS011;13395;50.752;4.268;2023-07-29T02:05:23;6.07;;;1.40;;
25481;SDS011;13395;50.752;4.268;2023-07-29T02:07:49;8.55;;;1.70;;
25481;SDS011;13395;50.752;4.268;2023-07-29T02:10:16;8.10;;;1.60;;
25481;SDS011;13395;50.752;4.268;2023-07-29T02:12:41;3.60;;;1.60;;
25481;SDS011;13395;50.752;4.268;2023-07-29T02:15:07;4.38;;;1.77;;
25481;SDS011;13395;50.752;4.268;2023-07-29T02:17:33;5.50;;;1.77;;
25481;SDS011;13395;50.752;4.268;2023-07-29T02:19:59;11.18;;;1.90;;
25481;SDS011;13395;50.752;4.268;2023-07-29T02:22:24;2.50;;;1.77;;
25481;SDS011;13395;50.752;4.268;2023-07-29T02:24:50;6.03;;;1.63;;
25481;SDS011;13395;50.752;4.268;2023-07-29T02:27:16;7.30;;;1.85;;
25481;SDS011;13395;50.752;4.268;2023-07-29T02:29:41;5.55;;;1.55;;
25481;SDS011;13395;50.752;4.268;2023-07-29T02:32:07;2.75;;;1.48;;
25481;SDS011;13395;50.752;4.268;2023-07-29T02:34:33;4.70;;;1.75;;
25481;SDS011;13395;50.752;4.268;2023-07-29T02:36:59;6.35;;;1.70;;
25481;SDS011;13395;50.752;4.268;2023-07-29T02:39:25;4.68;;;1.65;;
25481;SDS011;13395;50.752;4.268;2023-07-29T02:41:50;3.25;;;1.73;;
25481;SDS011;13395;50.752;4.268;2023-07-29T02:44:16;4.82;;;2.00;;
25481;SDS011;13395;50.752;4.268;2023-07-29T02:46:42;6.40;;;1.88;;
25481;SDS011;13395;50.752;4.268;2023-07-29T02:49:07;6.63;;;1.67;;
25481;SDS011;13395;50.752;4.268;2023-07-29T02:51:33;14.00;;;1.92;;
25481;SDS011;13395;50.752;4.268;2023-07-29T02:53:58;7.50;;;2.67;;
25481;SDS011;13395;50.752;4.268;2023-07-29T02:56:24;9.55;;;2.05;;
25481;SDS011;13395;50.752;4.268;2023-07-29T02:58:49;4.82;;;1.80;;
25481;SDS011;13395;50.752;4.268;2023-07-29T03:01:18;5.07;;;2.03;;
25481;SDS011;13395;50.752;4.268;2023-07-29T03:03:44;6.88;;;1.55;;
25481;SDS011;13395;50.752;4.268;2023-07-29T03:06:10;5.03;;;1.65;;
25481;SDS011;13395;50.752;4.268;2023-07-29T03:08:45;5.43;;;1.90;;
25481;SDS011;13395;50.752;4.268;2023-07-29T03:11:12;4.95;;;1.88;;
25481;SDS011;13395;50.752;4.268;2023-07-29T03:13:39;4.25;;;1.92;;
25481;SDS011;13395;50.752;4.268;2023-07-29T03:16:09;3.63;;;1.80;;
25481;SDS011;13395;50.752;4.268;2023-07-29T03:18:39;3.17;;;1.90;;
25481;SDS011;13395;50.752;4.268;2023-07-29T03:21:05;3.38;;;1.58;;
25481;SDS011;13395;50.752;4.268;2023-07-29T03:23:31;6.30;;;1.80;;
25481;SDS011;13395;50.752;4.268;2023-07-29T03:25:58;2.03;;;1.65;;
25481;SDS011;13395;50.752;4.268;2023-07-29T03:28:27;4.35;;;1.80;;
25481;SDS011;13395;50.752;4.268;2023-07-29T03:30:54;5.47;;;1.80;;
25481;SDS011;13395;50.752;4.268;2023-07-29T03:33:20;7.13;;;1.90;;
25481;SDS011;13395;50.752;4.268;2023-07-29T03:35:46;3.75;;;2.10;;
25481;SDS011;13395;50.752;4.268;2023-07-29T03:38:12;4.95;;;2.08;;
25481;SDS011;13395;50.752;4.268;2023-07-29T03:40:38;4.85;;;1.83;;
25481;SDS011;13395;50.752;4.268;2023-07-29T03:43:04;4.03;;;1.45;;
25481;SDS011;13395;50.752;4.268;2023-07-29T03:45:30;7.35;;;1.98;;
25481;SDS011;13395;50.752;4.268;2023-07-29T03:47:56;9.20;;;1.95;;
25481;SDS011;13395;50.752;4.268;2023-07-29T03:50:21;2.85;;;1.58;;
25481;SDS011;13395;50.752;4.268;2023-07-29T03:52:47;7.25;;;2.50;;
25481;SDS011;13395;50.752;4.268;2023-07-29T03:55:13;3.15;;;1.88;;
25481;SDS011;13395;50.752;4.268;2023-07-29T03:57:38;5.90;;;2.17;;
25481;SDS011;13395;50.752;4.268;2023-07-29T04:00:04;3.67;;;2.05;;
25481;SDS011;13395;50.752;4.268;2023-07-29T04:02:30;7.65;;;2.13;;
25481;SDS011;13395;50.752;4.268;2023-07-29T04:04:56;7.38;;;2.30;;
25481;SDS011;13395;50.752;4.268;2023-07-29T04:07:22;4.57;;;2.10;;
25481;SDS011;13395;50.752;4.268;2023-07-29T04:09:47;7.57;;;2.90;;
25481;SDS011;13395;50.752;4.268;2023-07-29T04:12:14;7.70;;;1.95;;
25481;SDS011;13395;50.752;4.268;2023-07-29T04:14:40;10.25;;;3.40;;
25481;SDS011;13395;50.752;4.268;2023-07-29T04:17:06;4.07;;;1.92;;
25481;SDS011;13395;50.752;4.268;2023-07-29T04:19:32;7.07;;;2.25;;
25481;SDS011;13395;50.752;4.268;2023-07-29T04:21:58;6.80;;;2.10;;
25481;SDS011;13395;50.752;4.268;2023-07-29T04:24:23;4.97;;;1.90;;
25481;SDS011;13395;50.752;4.268;2023-07-29T04:26:49;7.18;;;2.00;;
25481;SDS011;13395;50.752;4.268;2023-07-29T04:29:14;11.18;;;2.38;;
25481;SDS011;13395;50.752;4.268;2023-07-29T04:31:40;4.15;;;2.00;;
25481;SDS011;13395;50.752;4.268;2023-07-29T04:34:05;11.40;;;2.30;;
25481;SDS011;13395;50.752;4.268;2023-07-29T04:36:31;11.65;;;2.58;;
25481;SDS011;13395;50.752;4.268;2023-07-29T04:38:58;3.63;;;2.10;;
25481;SDS011;13395;50.752;4.268;2023-07-29T04:41:23;2.28;;;1.75;;
25481;SDS011;13395;50.752;4.268;2023-07-29T04:43:49;6.32;;;2.28;;
25481;SDS011;13395;50.752;4.268;2023-07-29T04:46:15;9.10;;;1.90;;
25481;SDS011;13395;50.752;4.268;2023-07-29T04:48:40;3.65;;;1.90;;
25481;SDS011;13395;50.752;4.268;2023-07-29T04:51:06;4.13;;;1.60;;
25481;SDS011;13395;50.752;4.268;2023-07-29T04:53:32;6.20;;;1.50;;
25481;SDS011;13395;50.752;4.268;2023-07-29T04:55:57;5.28;;;2.05;;
25481;SDS011;13395;50.752;4.268;2023-07-29T04:58:23;6.18;;;1.90;;
25481;SDS011;13395;50.752;4.268;2023-07-29T05:00:49;4.93;;;1.75;;
25481;SDS011;13395;50.752;4.268;2023-07-29T05:03:14;3.17;;;1.60;;
25481;SDS011;13395;50.752;4.268;2023-07-29T05:05:40;6.72;;;1.83;;
25481;SDS011;13395;50.752;4.268;2023-07-29T05:08:06;9.70;;;3.10;;
25481;SDS011;13395;50.752;4.268;2023-07-29T05:10:31;5.53;;;1.80;;
25481;SDS011;13395;50.752;4.268;2023-07-29T05:15:32;4.72;;;1.25;;
25481;SDS011;13395;50.752;4.268;2023-07-29T05:17:58;1.88;;;1.20;;
25481;SDS011;13395;50.752;4.268;2023-07-29T05:20:23;3.17;;;1.00;;
25481;SDS011;13395;50.752;4.268;2023-07-29T05:22:49;7.80;;;1.30;;
25481;SDS011;13395;50.752;4.268;2023-07-29T05:25:14;2.25;;;1.02;;
25481;SDS011;13395;50.752;4.268;2023-07-29T05:27:40;1.67;;;0.98;;
25481;SDS011;13395;50.752;4.268;2023-07-29T05:40:16;3.22;;;1.00;;
25481;SDS011;13395;50.752;4.268;2023-07-29T05:42:42;2.42;;;0.90;;
25481;SDS011;13395;50.752;4.268;2023-07-29T05:47:44;4.03;;;0.95;;
25481;SDS011;13395;50.752;4.268;2023-07-29T05:50:09;1.92;;;1.00;;
25481;SDS011;13395;50.752;4.268;2023-07-29T05:52:35;5.82;;;1.00;;
25481;SDS011;13395;50.752;4.268;2023-07-29T05:55:01;3.25;;;0.90;;
25481;SDS011;13395;50.752;4.268;2023-07-29T05:57:27;3.58;;;0.82;;
25481;SDS011;13395;50.752;4.268;2023-07-29T05:59:53;1.50;;;0.88;;
25481;SDS011;13395;50.752;4.268;2023-07-29T06:02:18;4.65;;;1.23;;
25481;SDS011;13395;50.752;4.268;2023-07-29T06:04:44;4.07;;;0.90;;
25481;SDS011;13395;50.752;4.268;2023-07-29T06:07:10;5.95;;;1.20;;
25481;SDS011;13395;50.752;4.268;2023-07-29T06:09:35;2.97;;;1.00;;
25481;SDS011;13395;50.752;4.268;2023-07-29T06:12:01;4.22;;;1.17;;
25481;SDS011;13395;50.752;4.268;2023-07-29T06:16:57;4.22;;;1.20;;
25481;SDS011;13395;50.752;4.268;2023-07-29T06:19:23;4.32;;;1.05;;
25481;SDS011;13395;50.752;4.268;2023-07-29T06:21:48;1.95;;;0.80;;
25481;SDS011;13395;50.752;4.268;2023-07-29T06:24:14;2.78;;;1.00;;
25481;SDS011;13395;50.752;4.268;2023-07-29T06:26:39;3.33;;;1.33;;
25481;SDS011;13395;50.752;4.268;2023-07-29T06:29:05;1.98;;;0.90;;
25481;SDS011;13395;50.752;4.268;2023-07-29T06:31:31;5.80;;;0.90;;
25481;SDS011;13395;50.752;4.268;2023-07-29T06:33:57;2.05;;;0.85;;
25481;SDS011;13395;50.752;4.268;2023-07-29T06:36:23;1.20;;;0.90;;
25481;SDS011;13395;50.752;4.268;2023-07-29T06:38:49;3.25;;;1.45;;
25481;SDS011;13395;50.752;4.268;2023-07-29T06:41:14;3.38;;;0.93;;
25481;SDS011;13395;50.752;4.268;2023-07-29T06:43:40;6.13;;;1.40;;
25481;SDS011;13395;50.752;4.268;2023-07-29T06:46:05;3.17;;;1.00;;
25481;SDS011;13395;50.752;4.268;2023-07-29T06:48:31;3.47;;;1.23;;
25481;SDS011;13395;50.752;4.268;2023-07-29T06:50:56;2.22;;;1.27;;
25481;SDS011;13395;50.752;4.268;2023-07-29T06:53:25;3.10;;;1.08;;
25481;SDS011;13395;50.752;4.268;2023-07-29T06:55:51;2.22;;;0.90;;
25481;SDS011;13395;50.752;4.268;2023-07-29T06:58:17;2.47;;;0.90;;
25481;SDS011;13395;50.752;4.268;2023-07-29T07:00:43;1.85;;;0.93;;
25481;SDS011;13395;50.752;4.268;2023-07-29T07:03:08;1.30;;;1.00;;
25481;SDS011;13395;50.752;4.268;2023-07-29T07:05:34;2.08;;;1.20;;
25481;SDS011;13395;50.752;4.268;2023-07-29T07:07:59;1.20;;;1.02;;
25481;SDS011;13395;50.752;4.268;2023-07-29T07:10:25;1.10;;;0.80;;
25481;SDS011;13395;50.752;4.268;2023-07-29T07:12:50;3.10;;;1.42;;
25481;SDS011;13395;50.752;4.268;2023-07-29T07:15:16;2.85;;;1.33;;
25481;SDS011;13395;50.752;4.268;2023-07-29T07:17:41;4.25;;;1.52;;
25481;SDS011;13395;50.752;4.268;2023-07-29T07:20:07;3.50;;;1.55;;
25481;SDS011;13395;50.752;4.268;2023-07-29T07:22:33;3.00;;;1.02;;
25481;SDS011;13395;50.752;4.268;2023-07-29T07:24:59;1.65;;;0.98;;
25481;SDS011;13395;50.752;4.268;2023-07-29T07:27:24;2.92;;;1.60;;
25481;SDS011;13395;50.752;4.268;2023-07-29T07:29:50;3.80;;;1.02;;
25481;SDS011;13395;50.752;4.268;2023-07-29T07:32:15;1.65;;;1.13;;
25481;SDS011;13395;50.752;4.268;2023-07-29T07:34:41;2.80;;;1.05;;
25481;SDS011;13395;50.752;4.268;2023-07-29T07:37:06;4.72;;;1.42;;
25481;SDS011;13395;50.752;4.268;2023-07-29T07:39:32;2.97;;;1.10;;
25481;SDS011;13395;50.752;4.268;2023-07-29T07:41:58;2.72;;;0.90;;
25481;SDS011;13395;50.752;4.268;2023-07-29T07:44:23;3.13;;;1.00;;
25481;SDS011;13395;50.752;4.268;2023-07-29T07:46:51;1.67;;;1.02;;
25481;SDS011;13395;50.752;4.268;2023-07-29T07:49:19;1.70;;;0.90;;
25481;SDS011;13395;50.752;4.268;2023-07-29T07:51:45;2.08;;;0.70;;
25481;SDS011;13395;50.752;4.268;2023-07-29T07:54:10;5.25;;;1.00;;
25481;SDS011;13395;50.752;4.268;2023-07-29T07:56:36;1.88;;;0.90;;
25481;SDS011;13395;50.752;4.268;2023-07-29T07:59:01;2.85;;;0.90;;
25481;SDS011;13395;50.752;4.268;2023-07-29T08:01:27;1.83;;;1.10;;
25481;SDS011;13395;50.752;4.268;2023-07-29T08:03:53;3.05;;;0.88;;
25481;SDS011;13395;50.752;4.268;2023-07-29T08:06:18;3.33;;;0.70;;
25481;SDS011;13395;50.752;4.268;2023-07-29T08:08:44;3.63;;;0.70;;
25481;SDS011;13395;50.752;4.268;2023-07-29T08:11:09;2.97;;;0.90;;
25481;SDS011;13395;50.752;4.268;2023-07-29T08:13:35;1.45;;;0.80;;
25481;SDS011;13395;50.752;4.268;2023-07-29T08:16:01;4.57;;;1.00;;
25481;SDS011;13395;50.752;4.268;2023-07-29T08:18:27;1.15;;;0.80;;
25481;SDS011;13395;50.752;4.268;2023-07-29T08:20:56;2.20;;;0.70;;
25481;SDS011;13395;50.752;4.268;2023-07-29T08:23:26;2.10;;;1.00;;
25481;SDS011;13395;50.752;4.268;2023-07-29T08:31:04;1.77;;;0.90;;
25481;SDS011;13395;50.752;4.268;2023-07-29T08:33:30;1.50;;;0.85;;
25481;SDS011;13395;50.752;4.268;2023-07-29T08:48:53;2.88;;;1.00;;
25481;SDS011;13395;50.752;4.268;2023-07-29T08:59:02;2.38;;;0.90;;
25481;SDS011;13395;50.752;4.268;2023-07-29T09:04:05;1.38;;;0.70;;
25481;SDS011;13395;50.752;4.268;2023-07-29T09:11:47;2.25;;;0.82;;
25481;SDS011;13395;50.752;4.268;2023-07-29T10:18:57;3.15;;;1.67;;
25481;SDS011;13395;50.752;4.268;2023-07-29T10:21:23;4.88;;;1.70;;
25481;SDS011;13395;50.752;4.268;2023-07-29T10:23:49;2.80;;;1.50;;
25481;SDS011;13395;50.752;4.268;2023-07-29T10:26:18;4.47;;;1.48;;
25481;SDS011;13395;50.752;4.268;2023-07-29T10:28:46;2.63;;;1.52;;
25481;SDS011;13395;50.752;4.268;2023-07-29T10:31:16;3.13;;;1.27;;
25481;SDS011;13395;50.752;4.268;2023-07-29T10:33:43;1.75;;;1.20;;
25481;SDS011;13395;50.752;4.268;2023-07-29T10:36:09;3.97;;;1.60;;
25481;SDS011;13395;50.752;4.268;2023-07-29T10:38:35;3.40;;;1.30;;
25481;SDS011;13395;50.752;4.268;2023-07-29T10:41:01;2.60;;;1.40;;
25481;SDS011;13395;50.752;4.268;2023-07-29T10:45:53;2.65;;;1.90;;
25481;SDS011;13395;50.752;4.268;2023-07-29T10:53:31;4.07;;;2.92;;
25481;SDS011;13395;50.752;4.268;2023-07-29T10:58:33;4.45;;;2.83;;
25481;SDS011;13395;50.752;4.268;2023-07-29T11:01:12;7.10;;;3.03;;
25481;SDS011;13395;50.752;4.268;2023-07-29T11:06:24;4.67;;;2.37;;
25481;SDS011;13395;50.752;4.268;2023-07-29T11:08:49;2.63;;;1.90;;
25481;SDS011;13395;50.752;4.268;2023-07-29T11:11:15;4.32;;;2.13;;
25481;SDS011;13395;50.752;4.268;2023-07-29T11:13:40;2.00;;;1.70;;
25481;SDS011;13395;50.752;4.268;2023-07-29T11:16:06;1.70;;;1.60;;
25481;SDS011;13395;50.752;4.268;2023-07-29T11:18:35;7.75;;;2.30;;
25481;SDS011;13395;50.752;4.268;2023-07-29T11:21:02;4.10;;;1.80;;
25481;SDS011;13395;50.752;4.268;2023-07-29T11:23:32;3.05;;;2.00;;
25481;SDS011;13395;50.752;4.268;2023-07-29T11:25:59;3.55;;;1.80;;
25481;SDS011;13395;50.752;4.268;2023-07-29T11:28:26;3.53;;;1.67;;
25481;SDS011;13395;50.752;4.268;2023-07-29T11:30:53;2.17;;;1.80;;
25481;SDS011;13395;50.752;4.268;2023-07-29T11:33:29;3.03;;;1.60;;
25481;SDS011;13395;50.752;4.268;2023-07-29T11:35:55;2.90;;;1.55;;
25481;SDS011;13395;50.752;4.268;2023-07-29T11:38:21;1.90;;;1.50;;
25481;SDS011;13395;50.752;4.268;2023-07-29T11:40:58;3.13;;;1.20;;
25481;SDS011;13395;50.752;4.268;2023-07-29T11:43:25;2.78;;;1.67;;
25481;SDS011;13395;50.752;4.268;2023-07-29T11:45:51;1.20;;;1.10;;
25481;SDS011;13395;50.752;4.268;2023-07-29T11:48:18;3.78;;;1.27;;
25481;SDS011;13395;50.752;4.268;2023-07-29T11:50:50;3.07;;;1.20;;
25481;SDS011;13395;50.752;4.268;2023-07-29T11:53:16;2.65;;;1.00;;
25481;SDS011;13395;50.752;4.268;2023-07-29T11:55:41;4.95;;;1.20;;
25481;SDS011;13395;50.752;4.268;2023-07-29T11:58:07;3.58;;;1.50;;
25481;SDS011;13395;50.752;4.268;2023-07-29T12:00:33;1.42;;;1.33;;
25481;SDS011;13395;50.752;4.268;2023-07-29T12:02:59;1.85;;;1.33;;
25481;SDS011;13395;50.752;4.268;2023-07-29T12:05:25;3.15;;;1.52;;
25481;SDS011;13395;50.752;4.268;2023-07-29T12:07:50;3.13;;;1.20;;
25481;SDS011;13395;50.752;4.268;2023-07-29T12:10:16;2.15;;;1.48;;
25481;SDS011;13395;50.752;4.268;2023-07-29T12:12:44;1.83;;;1.65;;
25481;SDS011;13395;50.752;4.268;2023-07-29T12:15:11;2.05;;;1.60;;
25481;SDS011;13395;50.752;4.268;2023-07-29T12:17:40;3.95;;;2.10;;
25481;SDS011;13395;50.752;4.268;2023-07-29T12:20:08;8.10;;;3.00;;
25481;SDS011;13395;50.752;4.268;2023-07-29T12:22:35;8.70;;;3.03;;
25481;SDS011;13395;50.752;4.268;2023-07-29T12:25:00;3.78;;;1.70;;
25481;SDS011;13395;50.752;4.268;2023-07-29T12:27:27;3.53;;;1.80;;
25481;SDS011;13395;50.752;4.268;2023-07-29T12:29:56;2.88;;;1.83;;
25481;SDS011;13395;50.752;4.268;2023-07-29T12:32:25;3.28;;;2.10;;
25481;SDS011;13395;50.752;4.268;2023-07-29T12:34:52;2.95;;;2.45;;
25481;SDS011;13395;50.752;4.268;2023-07-29T12:37:18;2.55;;;1.60;;
25481;SDS011;13395;50.752;4.268;2023-07-29T12:39:44;2.85;;;1.80;;
25481;SDS011;13395;50.752;4.268;2023-07-29T12:42:10;3.90;;;1.85;;
25481;SDS011;13395;50.752;4.268;2023-07-29T12:44:36;3.30;;;1.85;;
25481;SDS011;13395;50.752;4.268;2023-07-29T12:47:03;4.60;;;1.95;;
25481;SDS011;13395;50.752;4.268;2023-07-29T12:49:30;2.03;;;1.55;;
25481;SDS011;13395;50.752;4.268;2023-07-29T12:51:56;3.28;;;1.40;;
25481;SDS011;13395;50.752;4.268;2023-07-29T12:54:22;4.60;;;1.60;;
25481;SDS011;13395;50.752;4.268;2023-07-29T12:56:48;1.95;;;1.80;;
25481;SDS011;13395;50.752;4.268;2023-07-29T12:59:13;2.20;;;1.77;;
25481;SDS011;13395;50.752;4.268;2023-07-29T13:01:39;3.65;;;2.20;;
25481;SDS011;13395;50.752;4.268;2023-07-29T13:04:05;4.32;;;1.92;;
25481;SDS011;13395;50.752;4.268;2023-07-29T13:06:30;2.33;;;1.80;;
25481;SDS011;13395;50.752;4.268;2023-07-29T13:08:56;3.03;;;2.17;;
25481;SDS011;13395;50.752;4.268;2023-07-29T13:11:23;3.03;;;2.03;;
25481;SDS011;13395;50.752;4.268;2023-07-29T13:13:49;1.73;;;1.63;;
25481;SDS011;13395;50.752;4.268;2023-07-29T13:16:15;1.30;;;1.20;;
25481;SDS011;13395;50.752;4.268;2023-07-29T13:18:40;1.33;;;1.23;;
25481;SDS011;13395;50.752;4.268;2023-07-29T13:21:07;1.77;;;1.00;;
25481;SDS011;13395;50.752;4.268;2023-07-29T13:23:33;3.10;;;1.05;;
25481;SDS011;13395;50.752;4.268;2023-07-29T13:25:59;1.48;;;1.20;;
25481;SDS011;13395;50.752;4.268;2023-07-29T13:31:00;1.10;;;1.00;;
25481;SDS011;13395;50.752;4.268;2023-07-29T13:33:26;1.40;;;1.20;;
25481;SDS011;13395;50.752;4.268;2023-07-29T13:38:19;0.90;;;0.82;;
25481;SDS011;13395;50.752;4.268;2023-07-29T13:40:45;1.10;;;1.00;;
25481;SDS011;13395;50.752;4.268;2023-07-29T13:43:11;1.00;;;0.80;;
25481;SDS011;13395;50.752;4.268;2023-07-29T13:45:37;2.40;;;1.42;;
25481;SDS011;13395;50.752;4.268;2023-07-29T13:48:03;2.15;;;1.10;;
25481;SDS011;13395;50.752;4.268;2023-07-29T13:50:28;1.58;;;1.20;;
25481;SDS011;13395;50.752;4.268;2023-07-29T13:52:54;3.17;;;1.00;;
25481;SDS011;13395;50.752;4.268;2023-07-29T13:55:19;4.07;;;0.93;;
25481;SDS011;13395;50.752;4.268;2023-07-29T14:05:31;1.90;;;1.10;;
25481;SDS011;13395;50.752;4.268;2023-07-29T14:07:57;2.58;;;0.73;;
25481;SDS011;13395;50.752;4.268;2023-07-29T14:12:58;0.95;;;0.80;;
25481;SDS011;13395;50.752;4.268;2023-07-29T14:15:24;1.17;;;0.80;;
25481;SDS011;13395;50.752;4.268;2023-07-29T14:23:00;1.27;;;0.80;;
25481;SDS011;13395;50.752;4.268;2023-07-29T14:25:26;1.23;;;0.70;;
25481;SDS011;13395;50.752;4.268;2023-07-29T14:27:53;0.80;;;0.80;;
25481;SDS011;13395;50.752;4.268;2023-07-29T14:30:19;1.73;;;1.30;;
25481;SDS011;13395;50.752;4.268;2023-07-29T14:32:44;0.98;;;0.80;;
25481;SDS011;13395;50.752;4.268;2023-07-29T14:37:45;2.15;;;1.00;;
25481;SDS011;13395;50.752;4.268;2023-07-29T14:50:32;0.90;;;0.70;;
25481;SDS011;13395;50.752;4.268;2023-07-29T14:52:58;1.77;;;0.98;;
25481;SDS011;13395;50.752;4.268;2023-07-29T14:55:24;3.45;;;0.95;;
25481;SDS011;13395;50.752;4.268;2023-07-29T14:57:49;1.42;;;0.98;;
25481;SDS011;13395;50.752;4.268;2023-07-29T15:00:15;1.63;;;1.27;;
25481;SDS011;13395;50.752;4.268;2023-07-29T15:02:40;1.52;;;1.00;;
25481;SDS011;13395;50.752;4.268;2023-07-29T15:05:06;1.73;;;1.00;;
25481;SDS011;13395;50.752;4.268;2023-07-29T15:07:32;1.48;;;0.90;;
25481;SDS011;13395;50.752;4.268;2023-07-29T15:15:10;1.42;;;0.90;;
25481;SDS011;13395;50.752;4.268;2023-07-29T15:30:35;3.25;;;1.10;;
25481;SDS011;13395;50.752;4.268;2023-07-29T15:33:01;0.90;;;0.70;;
25481;SDS011;13395;50.752;4.268;2023-07-29T15:38:02;1.35;;;1.02;;
25481;SDS011;13395;50.752;4.268;2023-07-29T15:40:27;0.88;;;0.80;;
25481;SDS011;13395;50.752;4.268;2023-07-29T15:42:53;0.70;;;0.60;;
25481;SDS011;13395;50.752;4.268;2023-07-29T15:45:18;1.95;;;0.90;;
25481;SDS011;13395;50.752;4.268;2023-07-29T15:47:44;1.48;;;0.82;;
25481;SDS011;13395;50.752;4.268;2023-07-29T15:50:10;1.40;;;1.00;;
25481;SDS011;13395;50.752;4.268;2023-07-29T15:52:35;1.60;;;1.15;;
25481;SDS011;13395;50.752;4.268;2023-07-29T15:55:01;3.38;;;1.40;;
25481;SDS011;13395;50.752;4.268;2023-07-29T15:57:27;2.20;;;1.27;;
25481;SDS011;13395;50.752;4.268;2023-07-29T15:59:53;1.27;;;1.10;;
25481;SDS011;13395;50.752;4.268;2023-07-29T16:02:18;3.67;;;1.38;;
25481;SDS011;13395;50.752;4.268;2023-07-29T16:04:44;1.23;;;1.00;;
25481;SDS011;13395;50.752;4.268;2023-07-29T16:07:09;2.22;;;1.40;;
25481;SDS011;13395;50.752;4.268;2023-07-29T16:09:35;1.38;;;1.13;;
25481;SDS011;13395;50.752;4.268;2023-07-29T16:12:00;3.53;;;1.63;;
25481;SDS011;13395;50.752;4.268;2023-07-29T16:14:26;1.80;;;1.20;;
25481;SDS011;13395;50.752;4.268;2023-07-29T16:16:52;1.95;;;1.30;;
25481;SDS011;13395;50.752;4.268;2023-07-29T16:19:22;1.48;;;1.10;;
25481;SDS011;13395;50.752;4.268;2023-07-29T16:21:49;3.70;;;1.00;;
25481;SDS011;13395;50.752;4.268;2023-07-29T16:24:15;1.02;;;0.90;;
25481;SDS011;13395;50.752;4.268;2023-07-29T16:26:41;4.03;;;1.40;;
25481;SDS011;13395;50.752;4.268;2023-07-29T16:29:07;1.45;;;1.00;;
25481;SDS011;13395;50.752;4.268;2023-07-29T16:31:33;1.20;;;1.10;;
25481;SDS011;13395;50.752;4.268;2023-07-29T16:33:59;1.50;;;0.95;;
25481;SDS011;13395;50.752;4.268;2023-07-29T16:36:24;1.58;;;0.95;;
25481;SDS011;13395;50.752;4.268;2023-07-29T16:38:50;4.55;;;1.35;;
25481;SDS011;13395;50.752;4.268;2023-07-29T16:41:16;1.67;;;0.90;;
25481;SDS011;13395;50.752;4.268;2023-07-29T16:43:44;1.55;;;0.88;;
25481;SDS011;13395;50.752;4.268;2023-07-29T16:46:10;6.53;;;1.27;;
25481;SDS011;13395;50.752;4.268;2023-07-29T16:48:36;4.88;;;1.20;;
25481;SDS011;13395;50.752;4.268;2023-07-29T16:51:02;3.72;;;1.05;;
25481;SDS011;13395;50.752;4.268;2023-07-29T16:53:28;3.45;;;1.17;;
25481;SDS011;13395;50.752;4.268;2023-07-29T16:56:00;4.97;;;1.38;;
25481;SDS011;13395;50.752;4.268;2023-07-29T16:58:26;3.45;;;1.40;;
25481;SDS011;13395;50.752;4.268;2023-07-29T17:00:52;4.03;;;1.30;;
25481;SDS011;13395;50.752;4.268;2023-07-29T17:03:17;1.95;;;1.20;;
25481;SDS011;13395;50.752;4.268;2023-07-29T17:05:45;3.70;;;1.20;;
25481;SDS011;13395;50.752;4.268;2023-07-29T17:08:10;3.55;;;1.25;;
25481;SDS011;13395;50.752;4.268;2023-07-29T17:10:36;5.90;;;1.50;;
25481;SDS011;13395;50.752;4.268;2023-07-29T17:13:01;4.90;;;1.95;;
25481;SDS011;13395;50.752;4.268;2023-07-29T17:15:27;3.85;;;1.38;;
25481;SDS011;13395;50.752;4.268;2023-07-29T17:17:52;5.70;;;1.48;;
25481;SDS011;13395;50.752;4.268;2023-07-29T17:20:21;6.65;;;1.58;;
25481;SDS011;13395;50.752;4.268;2023-07-29T17:22:46;5.18;;;1.40;;
25481;SDS011;13395;50.752;4.268;2023-07-29T17:25:12;6.60;;;1.50;;
25481;SDS011;13395;50.752;4.268;2023-07-29T17:27:37;4.70;;;1.63;;
25481;SDS011;13395;50.752;4.268;2023-07-29T17:30:03;5.85;;;1.40;;
25481;SDS011;13395;50.752;4.268;2023-07-29T17:32:29;5.22;;;1.98;;
25481;SDS011;13395;50.752;4.268;2023-07-29T17:34:54;3.58;;;1.30;;
25481;SDS011;13395;50.752;4.268;2023-07-29T17:37:20;4.78;;;1.48;;
25481;SDS011;13395;50.752;4.268;2023-07-29T17:42:21;7.15;;;1.70;;
25481;SDS011;13395;50.752;4.268;2023-07-29T17:44:47;4.57;;;1.63;;
25481;SDS011;13395;50.752;4.268;2023-07-29T17:52:20;5.53;;;1.98;;
25481;SDS011;13395;50.752;4.268;2023-07-29T17:54:45;5.05;;;1.50;;
25481;SDS011;13395;50.752;4.268;2023-07-29T17:57:11;4.07;;;1.70;;
25481;SDS011;13395;50.752;4.268;2023-07-29T17:59:37;5.70;;;1.90;;
25481;SDS011;13395;50.752;4.268;2023-07-29T18:02:03;3.65;;;1.50;;